Sydney, New South Wales

7:23 AM AEDT on February 09, 2016 (GMT +1100)
Kingsford Smith International

Weather History for YSSY - September, 2013

Change the Weather History Date:

Thursday, September 19, 2013

  Actual Average Record
Temperature  
Mean Temperature 66 °F -  
Max Temperature 75 °F 71 °F 87 °F (2006)
Min Temperature 57 °F 54 °F 48 °F (1999)
Cooling Degree Days 1    
Growing Degree Days 16 (Base 50)    
Moisture  
Dew Point 32 °F    
Average Humidity 28    
Maximum Humidity 59    
Minimum Humidity 5    
Precipitation  
Precipitation 0.00 in 0.09 in - ()
Sea Level Pressure  
Sea Level Pressure 29.66 in    
Wind  
Wind Speed 9 mph ()    
Max Wind Speed 26 mph    
Max Gust Speed 32 mph    
Visibility 14.1 miles    
Events      
Averages and records for this station are not official NWS values.
T = Trace of Precipitation, MM = Missing Value Source: Averaged Metar Reports

Daily Weather History Graph

Daily Weather History Graph

Search for Another Location

Airport or City:

Trip Planner

Search our weather history database for the weather conditions in past years. The results will help you decide how hot, cold, wet, or windy it might be!

Date:

Astronomy

Sep. 19, 2013 Rise Set
Actual Time 5:49 AM AEST 5:49 PM AEST
Civil Twilight 5:24 AM AEST 6:14 PM AEST
Nautical Twilight 4:55 AM AEST 6:43 PM AEST
Astronomical Twilight 4:26 AM AEST 7:12 PM AEST
Moon 5:38 PM AEST (9/19) 5:13 AM AEST (9/19)
Length of Visible Light 12h 49m
Length of Day
11h 59m
Full, 100% of the Moon is Illuminated
Sep 19
Full
Sep 19
Full
Sep 27
Last Quarter
Oct 5
New
Oct 12
First Quarter

Hourly Weather History & Observations

Time (AEST) Temp. Dew Point Humidity Pressure Visibility Wind Dir Wind Speed Gust Speed Precip Events Conditions
12:00 AM 63 °F 44 °F 39% 29.60 in 19 mi West 3.5 mph - -   Partly Cloudy
12:00 AM 62.6 °F 44.6 °F 52% 29.59 in - West 3.5 mph - N/A   Clear
12:30 AM 62.6 °F 46.4 °F 55% 29.59 in - South 5.8 mph - N/A   Clear
1:00 AM 63 °F 44 °F 38% 29.62 in - WNW 4.6 mph - -  
1:00 AM 62.6 °F 44.6 °F 52% 29.59 in - WNW 4.6 mph - N/A   Clear
1:30 AM 62.6 °F 44.6 °F 52% 29.59 in - West 8.1 mph - N/A   Clear
2:00 AM 62 °F 40 °F 33% 29.60 in - West 10.4 mph - -  
2:00 AM 62.6 °F 41.0 °F 45% 29.59 in - West 10.4 mph - N/A   Clear
2:30 AM 60.8 °F 44.6 °F 55% 29.59 in - West 5.8 mph - N/A   Clear
3:00 AM 60 °F 42 °F 40% 29.60 in 19 mi West 4.6 mph - -   Partly Cloudy
3:00 AM 60.8 °F 42.8 °F 52% 29.59 in - West 4.6 mph - N/A   Clear
3:30 AM 59.0 °F 44.6 °F 59% 29.59 in 6.2 mi SW 6.9 mph - N/A   Partly Cloudy
4:00 AM 59 °F 45 °F 48% 29.62 in - SSW 8.1 mph - -  
4:00 AM 59.0 °F 44.6 °F 59% 29.59 in 6.2 mi SSW 8.1 mph - N/A   Partly Cloudy
4:30 AM 59.0 °F 41.0 °F 51% 29.62 in - SW 9.2 mph - N/A   Clear
5:00 AM 59 °F 41 °F 39% 29.64 in - WSW 9.2 mph - -  
5:00 AM 59.0 °F 41.0 °F 51% 29.62 in 6.2 mi WSW 9.2 mph - N/A   Partly Cloudy
5:30 AM 59.0 °F 39.2 °F 48% 29.65 in 6.2 mi WNW 6.9 mph - N/A   Partly Cloudy
6:00 AM 60 °F 38 °F 32% 29.65 in 19 mi NW 5.8 mph - -   Partly Cloudy
6:00 AM 60.8 °F 37.4 °F 42% 29.62 in 6.2 mi NW 5.8 mph - N/A   Partly Cloudy
6:30 AM 62.6 °F 37.4 °F 39% 29.65 in - North 2.3 mph - N/A   Clear
7:00 AM 63 °F 36 °F 24% 29.67 in - North 5.8 mph - -  
7:00 AM 62.6 °F 35.6 °F 37% 29.65 in - North 5.8 mph - N/A   Clear
7:30 AM 64.4 °F 35.6 °F 34% 29.65 in - WNW 8.1 mph - N/A   Clear
8:00 AM 64 °F 36 °F 23% 29.69 in - West 6.9 mph - -  
8:00 AM 64.4 °F 35.6 °F 34% 29.68 in - West 6.9 mph - N/A   Clear
8:30 AM 66.2 °F 33.8 °F 30% 29.68 in - WSW 4.6 mph - N/A   Clear
9:00 AM 65 °F 39 °F 27% 29.70 in 19 mi WSW 5.8 mph - -   Partly Cloudy
9:00 AM 64.4 °F 39.2 °F 40% 29.68 in - WSW 5.8 mph - N/A   Clear
9:30 AM 64.4 °F 32.0 °F 30% 29.71 in - WSW 13.8 mph - N/A   Clear
10:00 AM 70 °F 26 °F 10% 29.71 in - WSW 16.1 mph - -  
10:00 AM 69.8 °F 26.6 °F 20% 29.68 in - WSW 16.1 mph - N/A   Clear
10:30 AM 68.0 °F 23.0 °F 18% 29.68 in - West 8.1 mph - N/A   Clear
11:00 AM 71 °F 21 °F 7% 29.70 in - West 11.5 mph - -  
11:00 AM 69.8 °F 21.2 °F 16% 29.68 in - West 11.5 mph - N/A   Clear
11:30 AM 69.8 °F 24.8 °F 18% 29.68 in - WNW 17.3 mph - N/A   Clear
12:00 PM 72 °F 26 °F 9% 29.67 in 19 mi WNW 12.7 mph - -   Partly Cloudy
12:00 PM 71.6 °F 26.6 °F 19% 29.65 in - WNW 12.7 mph - N/A   Clear
1:00 PM 74 °F 21 °F 6% 29.64 in - NW 16.1 mph - -  
1:00 PM 73.4 °F 21.2 °F 14% 29.62 in - NW 16.1 mph - N/A   Clear
1:30 PM 73.4 °F 19.4 °F 13% 29.62 in - NW 20.7 mph - N/A   Clear
2:00 PM 75.2 °F 19.4 °F 12% 29.62 in - NW 19.6 mph - N/A   Clear
2:08 PM 75.2 °F 17.6 °F 11% 29.62 in - NW 20.7 mph 32.2 mph N/A   Clear
2:30 PM 75.2 °F 17.6 °F 11% 29.59 in - WNW 24.2 mph - N/A   Clear
3:00 PM 75 °F 19 °F 5% 29.62 in 19 mi WNW 26.5 mph - -   Partly Cloudy
3:00 PM 75.2 °F 19.4 °F 12% 29.62 in - WNW 26.5 mph - N/A   Clear
3:19 PM 75.2 °F 15.8 °F 11% 29.62 in - NW 17.3 mph 28.8 mph N/A   Clear
3:30 PM 75.2 °F 15.8 °F 11% 29.62 in - WNW 20.7 mph - N/A   Clear
4:00 PM 74 °F 23 °F 7% 29.62 in - NW 23.0 mph - -  
4:00 PM 73.4 °F 23.0 °F 15% 29.62 in - NW 23.0 mph - N/A   Clear
4:30 PM 71.6 °F 21.2 °F 15% 29.62 in - West 18.4 mph - N/A   Clear
5:00 PM 71 °F 22 °F 8% 29.66 in - West 20.7 mph - -  
5:00 PM 71.6 °F 23.0 °F 16% 29.65 in - West 20.7 mph - N/A   Clear
5:30 PM 68.0 °F 21.2 °F 17% 29.65 in - WSW 15.0 mph - N/A   Clear
6:00 PM 68 °F 26 °F 11% 29.70 in 19 mi West 12.7 mph - -   Partly Cloudy
6:00 PM 68.0 °F 24.8 °F 20% 29.68 in - West 12.7 mph - N/A   Clear
6:30 PM 66.2 °F 28.4 °F 24% 29.71 in - West 13.8 mph - N/A   Clear
7:00 PM 64 °F 25 °F 13% 29.73 in - West 15.0 mph - -  
7:00 PM 64.4 °F 24.8 °F 22% 29.71 in - West 15.0 mph - N/A   Clear
7:30 PM 64.4 °F 28.4 °F 26% 29.74 in - West 13.8 mph - N/A   Clear
8:00 PM 62 °F 32 °F 20% 29.76 in - West 17.3 mph - -  
8:00 PM 62.6 °F 32.0 °F 32% 29.74 in - West 17.3 mph - N/A   Clear
8:30 PM 62.6 °F 30.2 °F 30% 29.77 in - West 13.8 mph - N/A   Clear
9:00 PM 62 °F 32 °F 21% 29.78 in 19 mi West 13.8 mph - -   Partly Cloudy
9:00 PM 62.6 °F 32.0 °F 32% 29.77 in - West 13.8 mph - N/A   Clear
9:30 PM 60.8 °F 33.8 °F 36% 29.77 in - West 11.5 mph - N/A   Clear
10:00 PM 60 °F 33 °F 25% 29.79 in - West 11.5 mph - -  
10:00 PM 60.8 °F 33.8 °F 36% 29.77 in - West 11.5 mph - N/A   Clear
10:30 PM 59.0 °F 33.8 °F 39% 29.77 in - WNW 8.1 mph - N/A   Clear
11:00 PM 58 °F 35 °F 29% 29.78 in - WNW 6.9 mph - -  
11:00 PM 59.0 °F 33.8 °F 39% 29.77 in - WNW 6.9 mph - N/A   Clear